Decoded Metar for KAIZ (KAISER MEM in MO, USA) (IATA:AIZ) | Meteo·Mobile Aviation Weather
aviador You're here:

KAIZ Decoded Metar

KAISER MEM in MO, USA
Report Time2018-08-22 05:56:00
UTC Time2018-08-22 06:57:38
Flight Rules vfr VFR
Wind330° at 03 kt
W.Decomp.*RWY 04: 1.0 kt HW 2.8 kt LCW
W.Rank330° ranks 22
Current wind is below 330° avg. (5.4)
Visibility9999 m
Phenomena:N/A
Clouds:N/A
Expected CloudBase > 800 ft AGL from Temp-Dew spread
CeilingNone
Temp20°C (ISA +7)
Dew Point18°C (88% RH)
QNH1021 hPa
Density Alt1,663 ft
Elevation869 ft
Report Wrong Elevation
Raw Report
KAIZ 220556Z AUTO 33003KT 10SM CLR 20/18 A3016 RMK AO2 SLP206
T02000178 10250 20183 402780183 53005=

Extra information for KAIZ:More info

Metar Taf Metar & Taf Last 4 Metars F.Rules Stats Wind Profile Meteogram Temp Stats Airport Information Weather charts Add Link Nearby VenuesMetar ALERT Operation Metar Decoded Social comments

AIRNAV info for KAIZ